sensor_id;sensor_type;location;lat;lon;timestamp;P1;durP1;ratioP1;P2;durP2;ratioP2
63688;SDS011;54895;40.928;14.480;2024-01-06T00:00:14;17.20;;;10.15;;
63688;SDS011;54895;40.928;14.480;2024-01-06T00:02:42;19.75;;;10.05;;
63688;SDS011;54895;40.928;14.480;2024-01-06T00:05:08;17.10;;;10.40;;
63688;SDS011;54895;40.928;14.480;2024-01-06T00:07:34;17.60;;;10.20;;
63688;SDS011;54895;40.928;14.480;2024-01-06T00:10:01;17.42;;;10.55;;
63688;SDS011;54895;40.928;14.480;2024-01-06T00:12:27;19.60;;;11.25;;
63688;SDS011;54895;40.928;14.480;2024-01-06T00:19:07;22.35;;;13.52;;
63688;SDS011;54895;40.928;14.480;2024-01-06T00:21:34;26.95;;;16.45;;
63688;SDS011;54895;40.928;14.480;2024-01-06T00:24:00;23.17;;;15.25;;
63688;SDS011;54895;40.928;14.480;2024-01-06T00:26:26;33.70;;;19.02;;
63688;SDS011;54895;40.928;14.480;2024-01-06T00:28:53;32.92;;;20.58;;
63688;SDS011;54895;40.928;14.480;2024-01-06T00:31:20;40.10;;;20.17;;
63688;SDS011;54895;40.928;14.480;2024-01-06T00:33:46;31.58;;;17.73;;
63688;SDS011;54895;40.928;14.480;2024-01-06T00:36:12;28.67;;;18.77;;
63688;SDS011;54895;40.928;14.480;2024-01-06T00:38:39;32.05;;;18.50;;
63688;SDS011;54895;40.928;14.480;2024-01-06T00:41:05;28.73;;;17.70;;
63688;SDS011;54895;40.928;14.480;2024-01-06T00:43:31;29.00;;;17.15;;
63688;SDS011;54895;40.928;14.480;2024-01-06T00:45:57;26.58;;;15.57;;
63688;SDS011;54895;40.928;14.480;2024-01-06T00:48:24;27.25;;;15.93;;
63688;SDS011;54895;40.928;14.480;2024-01-06T00:50:50;25.20;;;15.35;;
63688;SDS011;54895;40.928;14.480;2024-01-06T00:53:16;21.92;;;14.15;;
63688;SDS011;54895;40.928;14.480;2024-01-06T00:55:43;24.20;;;13.90;;
63688;SDS011;54895;40.928;14.480;2024-01-06T00:58:09;28.08;;;12.82;;
63688;SDS011;54895;40.928;14.480;2024-01-06T01:00:36;22.15;;;13.98;;
63688;SDS011;54895;40.928;14.480;2024-01-06T01:03:02;23.02;;;14.30;;
63688;SDS011;54895;40.928;14.480;2024-01-06T01:05:29;26.05;;;14.80;;
63688;SDS011;54895;40.928;14.480;2024-01-06T01:07:55;25.85;;;14.27;;
63688;SDS011;54895;40.928;14.480;2024-01-06T01:10:21;22.73;;;14.82;;
63688;SDS011;54895;40.928;14.480;2024-01-06T01:12:47;23.33;;;14.82;;
63688;SDS011;54895;40.928;14.480;2024-01-06T01:19:09;24.73;;;14.70;;
63688;SDS011;54895;40.928;14.480;2024-01-06T01:21:35;22.33;;;12.90;;
63688;SDS011;54895;40.928;14.480;2024-01-06T01:24:01;20.42;;;12.60;;
63688;SDS011;54895;40.928;14.480;2024-01-06T01:26:29;28.42;;;14.15;;
63688;SDS011;54895;40.928;14.480;2024-01-06T01:28:55;23.95;;;13.85;;
63688;SDS011;54895;40.928;14.480;2024-01-06T01:31:21;23.70;;;12.98;;
63688;SDS011;54895;40.928;14.480;2024-01-06T01:33:47;20.20;;;13.02;;
63688;SDS011;54895;40.928;14.480;2024-01-06T01:36:14;24.08;;;12.90;;
63688;SDS011;54895;40.928;14.480;2024-01-06T01:38:41;23.95;;;13.63;;
63688;SDS011;54895;40.928;14.480;2024-01-06T01:41:07;22.65;;;12.75;;
63688;SDS011;54895;40.928;14.480;2024-01-06T01:43:33;21.33;;;12.90;;
63688;SDS011;54895;40.928;14.480;2024-01-06T01:46:00;16.65;;;11.10;;
63688;SDS011;54895;40.928;14.480;2024-01-06T01:48:27;18.17;;;11.75;;
63688;SDS011;54895;40.928;14.480;2024-01-06T01:50:53;22.10;;;12.30;;
63688;SDS011;54895;40.928;14.480;2024-01-06T01:53:20;24.08;;;12.25;;
63688;SDS011;54895;40.928;14.480;2024-01-06T01:55:47;24.15;;;12.95;;
63688;SDS011;54895;40.928;14.480;2024-01-06T01:58:14;22.00;;;12.85;;
63688;SDS011;54895;40.928;14.480;2024-01-06T02:00:42;21.35;;;12.07;;
63688;SDS011;54895;40.928;14.480;2024-01-06T02:03:08;24.45;;;11.18;;
63688;SDS011;54895;40.928;14.480;2024-01-06T02:05:38;22.25;;;13.05;;
63688;SDS011;54895;40.928;14.480;2024-01-06T02:08:04;22.10;;;12.43;;
63688;SDS011;54895;40.928;14.480;2024-01-06T02:10:31;21.58;;;12.43;;
63688;SDS011;54895;40.928;14.480;2024-01-06T02:13:00;19.42;;;12.07;;
63688;SDS011;54895;40.928;14.480;2024-01-06T02:19:23;16.70;;;10.60;;
63688;SDS011;54895;40.928;14.480;2024-01-06T02:21:51;23.48;;;11.98;;
63688;SDS011;54895;40.928;14.480;2024-01-06T02:24:19;19.13;;;10.90;;
63688;SDS011;54895;40.928;14.480;2024-01-06T02:26:46;20.38;;;10.93;;
63688;SDS011;54895;40.928;14.480;2024-01-06T02:29:12;18.27;;;10.68;;
63688;SDS011;54895;40.928;14.480;2024-01-06T02:31:39;18.90;;;11.00;;
63688;SDS011;54895;40.928;14.480;2024-01-06T02:34:05;18.58;;;10.02;;
63688;SDS011;54895;40.928;14.480;2024-01-06T02:36:32;19.13;;;10.20;;
63688;SDS011;54895;40.928;14.480;2024-01-06T02:38:58;16.80;;;4.45;;
63688;SDS011;54895;40.928;14.480;2024-01-06T02:41:24;13.13;;;2.78;;
63688;SDS011;54895;40.928;14.480;2024-01-06T02:43:51;11.95;;;6.20;;
63688;SDS011;54895;40.928;14.480;2024-01-06T02:46:20;22.52;;;7.15;;
63688;SDS011;54895;40.928;14.480;2024-01-06T02:48:47;17.05;;;7.75;;
63688;SDS011;54895;40.928;14.480;2024-01-06T02:51:13;13.60;;;6.45;;
63688;SDS011;54895;40.928;14.480;2024-01-06T02:53:39;14.95;;;6.22;;
63688;SDS011;54895;40.928;14.480;2024-01-06T02:56:09;11.93;;;5.80;;
63688;SDS011;54895;40.928;14.480;2024-01-06T02:58:37;15.10;;;6.20;;
63688;SDS011;54895;40.928;14.480;2024-01-06T03:01:03;11.52;;;6.15;;
63688;SDS011;54895;40.928;14.480;2024-01-06T03:03:29;11.65;;;5.68;;
63688;SDS011;54895;40.928;14.480;2024-01-06T03:05:57;14.45;;;5.07;;
63688;SDS011;54895;40.928;14.480;2024-01-06T03:08:23;12.40;;;5.03;;
63688;SDS011;54895;40.928;14.480;2024-01-06T03:10:50;9.32;;;4.55;;
63688;SDS011;54895;40.928;14.480;2024-01-06T03:13:16;14.20;;;5.65;;
63688;SDS011;54895;40.928;14.480;2024-01-06T03:19:23;9.77;;;5.15;;
63688;SDS011;54895;40.928;14.480;2024-01-06T03:21:51;11.68;;;5.05;;
63688;SDS011;54895;40.928;14.480;2024-01-06T03:24:18;11.45;;;4.82;;
63688;SDS011;54895;40.928;14.480;2024-01-06T03:26:45;11.02;;;4.90;;
63688;SDS011;54895;40.928;14.480;2024-01-06T03:29:11;12.77;;;5.05;;
63688;SDS011;54895;40.928;14.480;2024-01-06T03:31:37;11.75;;;4.93;;
63688;SDS011;54895;40.928;14.480;2024-01-06T03:34:07;13.57;;;5.10;;
63688;SDS011;54895;40.928;14.480;2024-01-06T03:36:34;9.75;;;4.55;;
63688;SDS011;54895;40.928;14.480;2024-01-06T03:39:03;11.60;;;4.68;;
63688;SDS011;54895;40.928;14.480;2024-01-06T03:41:31;10.25;;;4.45;;
63688;SDS011;54895;40.928;14.480;2024-01-06T03:43:57;10.43;;;4.47;;
63688;SDS011;54895;40.928;14.480;2024-01-06T03:46:24;10.10;;;4.60;;
63688;SDS011;54895;40.928;14.480;2024-01-06T03:48:51;11.23;;;4.55;;
63688;SDS011;54895;40.928;14.480;2024-01-06T03:51:18;11.52;;;4.75;;
63688;SDS011;54895;40.928;14.480;2024-01-06T03:53:44;16.60;;;4.57;;
63688;SDS011;54895;40.928;14.480;2024-01-06T03:56:12;10.65;;;4.25;;
63688;SDS011;54895;40.928;14.480;2024-01-06T03:58:39;9.65;;;4.80;;
63688;SDS011;54895;40.928;14.480;2024-01-06T04:01:10;11.60;;;4.65;;
63688;SDS011;54895;40.928;14.480;2024-01-06T04:03:38;14.48;;;5.20;;
63688;SDS011;54895;40.928;14.480;2024-01-06T04:06:09;9.30;;;4.82;;
63688;SDS011;54895;40.928;14.480;2024-01-06T04:08:36;10.52;;;4.65;;
63688;SDS011;54895;40.928;14.480;2024-01-06T04:11:04;13.35;;;4.85;;
63688;SDS011;54895;40.928;14.480;2024-01-06T04:13:31;10.95;;;4.95;;
63688;SDS011;54895;40.928;14.480;2024-01-06T04:19:43;9.07;;;4.65;;
63688;SDS011;54895;40.928;14.480;2024-01-06T04:22:09;14.32;;;5.28;;
63688;SDS011;54895;40.928;14.480;2024-01-06T04:24:36;12.23;;;4.57;;
63688;SDS011;54895;40.928;14.480;2024-01-06T04:27:03;10.57;;;4.63;;
63688;SDS011;54895;40.928;14.480;2024-01-06T04:29:31;8.27;;;4.53;;
63688;SDS011;54895;40.928;14.480;2024-01-06T04:31:57;12.05;;;4.78;;
63688;SDS011;54895;40.928;14.480;2024-01-06T04:34:23;7.68;;;4.28;;
63688;SDS011;54895;40.928;14.480;2024-01-06T04:36:50;10.88;;;4.60;;
63688;SDS011;54895;40.928;14.480;2024-01-06T04:39:16;16.08;;;4.68;;
63688;SDS011;54895;40.928;14.480;2024-01-06T04:41:42;8.80;;;3.90;;
63688;SDS011;54895;40.928;14.480;2024-01-06T04:44:09;8.80;;;3.92;;
63688;SDS011;54895;40.928;14.480;2024-01-06T04:46:35;8.88;;;4.55;;
63688;SDS011;54895;40.928;14.480;2024-01-06T04:49:01;14.50;;;4.93;;
63688;SDS011;54895;40.928;14.480;2024-01-06T04:51:28;11.20;;;5.03;;
63688;SDS011;54895;40.928;14.480;2024-01-06T04:53:54;8.20;;;4.13;;
63688;SDS011;54895;40.928;14.480;2024-01-06T04:56:21;15.23;;;4.90;;
63688;SDS011;54895;40.928;14.480;2024-01-06T04:58:47;9.27;;;4.70;;
63688;SDS011;54895;40.928;14.480;2024-01-06T05:01:13;10.07;;;4.68;;
63688;SDS011;54895;40.928;14.480;2024-01-06T05:03:39;11.35;;;4.93;;
63688;SDS011;54895;40.928;14.480;2024-01-06T05:06:06;12.90;;;4.65;;
63688;SDS011;54895;40.928;14.480;2024-01-06T05:08:32;13.02;;;4.47;;
63688;SDS011;54895;40.928;14.480;2024-01-06T05:10:58;10.52;;;4.97;;
63688;SDS011;54895;40.928;14.480;2024-01-06T05:13:26;10.40;;;4.38;;
63688;SDS011;54895;40.928;14.480;2024-01-06T05:19:37;11.25;;;4.30;;
63688;SDS011;54895;40.928;14.480;2024-01-06T05:22:03;10.70;;;4.63;;
63688;SDS011;54895;40.928;14.480;2024-01-06T05:24:30;8.80;;;4.10;;
63688;SDS011;54895;40.928;14.480;2024-01-06T05:26:56;13.05;;;4.03;;
63688;SDS011;54895;40.928;14.480;2024-01-06T05:29:22;8.73;;;3.65;;
63688;SDS011;54895;40.928;14.480;2024-01-06T05:31:49;11.05;;;4.00;;
63688;SDS011;54895;40.928;14.480;2024-01-06T05:34:16;9.32;;;3.50;;
63688;SDS011;54895;40.928;14.480;2024-01-06T05:36:43;10.98;;;3.85;;
63688;SDS011;54895;40.928;14.480;2024-01-06T05:39:09;9.77;;;4.40;;
63688;SDS011;54895;40.928;14.480;2024-01-06T05:41:39;14.10;;;4.63;;
63688;SDS011;54895;40.928;14.480;2024-01-06T05:44:06;11.07;;;4.55;;
63688;SDS011;54895;40.928;14.480;2024-01-06T05:46:33;14.60;;;4.20;;
63688;SDS011;54895;40.928;14.480;2024-01-06T05:49:02;9.15;;;3.33;;
63688;SDS011;54895;40.928;14.480;2024-01-06T05:51:28;12.35;;;4.00;;
63688;SDS011;54895;40.928;14.480;2024-01-06T05:53:55;15.27;;;6.03;;
63688;SDS011;54895;40.928;14.480;2024-01-06T05:56:21;11.90;;;6.43;;
63688;SDS011;54895;40.928;14.480;2024-01-06T05:58:55;26.25;;;14.98;;
63688;SDS011;54895;40.928;14.480;2024-01-06T06:01:21;17.17;;;9.98;;
63688;SDS011;54895;40.928;14.480;2024-01-06T06:03:48;12.82;;;6.32;;
63688;SDS011;54895;40.928;14.480;2024-01-06T06:06:15;14.55;;;6.10;;
63688;SDS011;54895;40.928;14.480;2024-01-06T06:08:42;12.88;;;5.50;;
63688;SDS011;54895;40.928;14.480;2024-01-06T06:11:11;13.63;;;5.50;;
63688;SDS011;54895;40.928;14.480;2024-01-06T06:13:39;17.92;;;9.70;;
63688;SDS011;54895;40.928;14.480;2024-01-06T06:19:39;14.57;;;8.45;;
63688;SDS011;54895;40.928;14.480;2024-01-06T06:22:05;15.25;;;7.35;;
63688;SDS011;54895;40.928;14.480;2024-01-06T06:24:32;14.70;;;7.57;;
63688;SDS011;54895;40.928;14.480;2024-01-06T06:26:59;17.05;;;10.52;;
63688;SDS011;54895;40.928;14.480;2024-01-06T06:29:25;17.13;;;10.43;;
63688;SDS011;54895;40.928;14.480;2024-01-06T06:31:52;16.85;;;6.90;;
63688;SDS011;54895;40.928;14.480;2024-01-06T06:34:18;12.70;;;6.60;;
63688;SDS011;54895;40.928;14.480;2024-01-06T06:36:44;15.27;;;7.90;;
63688;SDS011;54895;40.928;14.480;2024-01-06T06:39:12;16.55;;;8.32;;
63688;SDS011;54895;40.928;14.480;2024-01-06T06:41:38;13.98;;;7.53;;
63688;SDS011;54895;40.928;14.480;2024-01-06T06:44:04;15.35;;;8.48;;
63688;SDS011;54895;40.928;14.480;2024-01-06T06:46:33;16.60;;;9.10;;
63688;SDS011;54895;40.928;14.480;2024-01-06T06:49:00;15.30;;;7.53;;
63688;SDS011;54895;40.928;14.480;2024-01-06T06:51:26;18.52;;;8.07;;
63688;SDS011;54895;40.928;14.480;2024-01-06T06:53:53;16.00;;;7.78;;
63688;SDS011;54895;40.928;14.480;2024-01-06T06:56:20;20.38;;;7.20;;
63688;SDS011;54895;40.928;14.480;2024-01-06T06:58:46;16.73;;;8.45;;
63688;SDS011;54895;40.928;14.480;2024-01-06T07:01:15;13.80;;;7.38;;
63688;SDS011;54895;40.928;14.480;2024-01-06T07:03:42;19.05;;;8.07;;
63688;SDS011;54895;40.928;14.480;2024-01-06T07:06:11;17.75;;;7.72;;
63688;SDS011;54895;40.928;14.480;2024-01-06T07:08:38;14.13;;;7.55;;
63688;SDS011;54895;40.928;14.480;2024-01-06T07:11:05;9.40;;;6.32;;
63688;SDS011;54895;40.928;14.480;2024-01-06T07:13:31;12.57;;;6.47;;
63688;SDS011;54895;40.928;14.480;2024-01-06T07:19:51;18.45;;;7.10;;
63688;SDS011;54895;40.928;14.480;2024-01-06T07:22:17;14.25;;;5.57;;
63688;SDS011;54895;40.928;14.480;2024-01-06T07:24:44;12.85;;;6.55;;
63688;SDS011;54895;40.928;14.480;2024-01-06T07:27:11;14.10;;;6.03;;
63688;SDS011;54895;40.928;14.480;2024-01-06T07:29:37;18.75;;;6.78;;
63688;SDS011;54895;40.928;14.480;2024-01-06T07:32:04;18.02;;;7.47;;
63688;SDS011;54895;40.928;14.480;2024-01-06T07:34:32;10.98;;;7.28;;
63688;SDS011;54895;40.928;14.480;2024-01-06T07:36:59;16.52;;;7.65;;
63688;SDS011;54895;40.928;14.480;2024-01-06T07:39:26;12.95;;;7.15;;
63688;SDS011;54895;40.928;14.480;2024-01-06T07:41:52;14.57;;;7.05;;
63688;SDS011;54895;40.928;14.480;2024-01-06T07:44:18;14.48;;;6.90;;
63688;SDS011;54895;40.928;14.480;2024-01-06T07:46:50;17.88;;;6.88;;
63688;SDS011;54895;40.928;14.480;2024-01-06T07:49:17;13.20;;;6.22;;
63688;SDS011;54895;40.928;14.480;2024-01-06T07:51:44;15.93;;;6.65;;
63688;SDS011;54895;40.928;14.480;2024-01-06T07:54:12;15.88;;;6.95;;
63688;SDS011;54895;40.928;14.480;2024-01-06T07:56:38;15.98;;;6.80;;
63688;SDS011;54895;40.928;14.480;2024-01-06T07:59:05;19.23;;;7.20;;
63688;SDS011;54895;40.928;14.480;2024-01-06T08:01:31;18.77;;;6.70;;
63688;SDS011;54895;40.928;14.480;2024-01-06T08:03:58;11.50;;;6.07;;
63688;SDS011;54895;40.928;14.480;2024-01-06T08:06:24;15.30;;;6.85;;
63688;SDS011;54895;40.928;14.480;2024-01-06T08:08:51;18.02;;;6.57;;
63688;SDS011;54895;40.928;14.480;2024-01-06T08:11:17;16.30;;;6.32;;
63688;SDS011;54895;40.928;14.480;2024-01-06T08:13:43;15.95;;;6.68;;
63688;SDS011;54895;40.928;14.480;2024-01-06T08:19:53;20.98;;;7.35;;
63688;SDS011;54895;40.928;14.480;2024-01-06T08:22:19;15.82;;;6.88;;
63688;SDS011;54895;40.928;14.480;2024-01-06T08:24:46;15.43;;;7.07;;
63688;SDS011;54895;40.928;14.480;2024-01-06T08:27:13;16.75;;;6.80;;
63688;SDS011;54895;40.928;14.480;2024-01-06T08:29:39;20.13;;;8.00;;
63688;SDS011;54895;40.928;14.480;2024-01-06T08:32:05;15.63;;;7.03;;
63688;SDS011;54895;40.928;14.480;2024-01-06T08:34:32;10.43;;;6.13;;
63688;SDS011;54895;40.928;14.480;2024-01-06T08:36:58;17.38;;;7.53;;
63688;SDS011;54895;40.928;14.480;2024-01-06T08:39:25;13.82;;;6.72;;
63688;SDS011;54895;40.928;14.480;2024-01-06T08:41:51;16.58;;;7.70;;
63688;SDS011;54895;40.928;14.480;2024-01-06T08:44:17;19.90;;;7.45;;
63688;SDS011;54895;40.928;14.480;2024-01-06T08:46:43;17.63;;;6.68;;
63688;SDS011;54895;40.928;14.480;2024-01-06T08:49:10;14.57;;;6.20;;
63688;SDS011;54895;40.928;14.480;2024-01-06T08:51:36;12.88;;;5.18;;
63688;SDS011;54895;40.928;14.480;2024-01-06T08:54:02;12.52;;;5.15;;
63688;SDS011;54895;40.928;14.480;2024-01-06T08:56:31;18.85;;;5.35;;
63688;SDS011;54895;40.928;14.480;2024-01-06T08:58:58;18.70;;;5.38;;
63688;SDS011;54895;40.928;14.480;2024-01-06T09:01:24;18.08;;;5.32;;
63688;SDS011;54895;40.928;14.480;2024-01-06T09:03:51;11.75;;;5.35;;
63688;SDS011;54895;40.928;14.480;2024-01-06T09:06:17;12.75;;;4.30;;
63688;SDS011;54895;40.928;14.480;2024-01-06T09:08:43;10.48;;;4.38;;
63688;SDS011;54895;40.928;14.480;2024-01-06T09:11:10;10.30;;;4.32;;
63688;SDS011;54895;40.928;14.480;2024-01-06T09:13:36;16.80;;;5.18;;
63688;SDS011;54895;40.928;14.480;2024-01-06T09:19:49;11.35;;;3.97;;
63688;SDS011;54895;40.928;14.480;2024-01-06T09:22:15;10.82;;;3.72;;
63688;SDS011;54895;40.928;14.480;2024-01-06T09:24:41;10.02;;;3.90;;
63688;SDS011;54895;40.928;14.480;2024-01-06T09:27:08;11.52;;;3.90;;
63688;SDS011;54895;40.928;14.480;2024-01-06T09:29:34;9.90;;;4.07;;
63688;SDS011;54895;40.928;14.480;2024-01-06T09:32:01;11.05;;;3.65;;
63688;SDS011;54895;40.928;14.480;2024-01-06T09:34:28;9.18;;;3.53;;
63688;SDS011;54895;40.928;14.480;2024-01-06T09:36:54;16.10;;;3.90;;
63688;SDS011;54895;40.928;14.480;2024-01-06T09:39:21;9.25;;;3.35;;
63688;SDS011;54895;40.928;14.480;2024-01-06T09:41:47;9.90;;;3.72;;
63688;SDS011;54895;40.928;14.480;2024-01-06T09:44:13;8.98;;;3.85;;
63688;SDS011;54895;40.928;14.480;2024-01-06T09:46:40;14.93;;;3.08;;
63688;SDS011;54895;40.928;14.480;2024-01-06T09:49:09;8.95;;;2.97;;
63688;SDS011;54895;40.928;14.480;2024-01-06T09:51:36;9.40;;;2.88;;
63688;SDS011;54895;40.928;14.480;2024-01-06T09:54:06;7.72;;;3.05;;
63688;SDS011;54895;40.928;14.480;2024-01-06T09:56:34;8.75;;;3.53;;
63688;SDS011;54895;40.928;14.480;2024-01-06T09:59:01;8.88;;;2.75;;
63688;SDS011;54895;40.928;14.480;2024-01-06T10:01:28;8.27;;;2.60;;
63688;SDS011;54895;40.928;14.480;2024-01-06T10:03:54;13.02;;;3.13;;
63688;SDS011;54895;40.928;14.480;2024-01-06T10:06:20;8.93;;;3.00;;
63688;SDS011;54895;40.928;14.480;2024-01-06T10:08:50;7.30;;;2.85;;
63688;SDS011;54895;40.928;14.480;2024-01-06T10:11:18;12.52;;;2.97;;
63688;SDS011;54895;40.928;14.480;2024-01-06T10:13:50;10.35;;;2.90;;
63688;SDS011;54895;40.928;14.480;2024-01-06T10:20:08;8.95;;;3.63;;
63688;SDS011;54895;40.928;14.480;2024-01-06T10:22:36;17.90;;;6.28;;
63688;SDS011;54895;40.928;14.480;2024-01-06T10:25:07;23.20;;;10.30;;
63688;SDS011;54895;40.928;14.480;2024-01-06T10:27:35;20.35;;;7.93;;
63688;SDS011;54895;40.928;14.480;2024-01-06T10:30:01;18.33;;;7.15;;
63688;SDS011;54895;40.928;14.480;2024-01-06T10:32:31;13.15;;;6.00;;
63688;SDS011;54895;40.928;14.480;2024-01-06T10:34:58;16.08;;;5.40;;
63688;SDS011;54895;40.928;14.480;2024-01-06T10:37:26;11.68;;;5.28;;
63688;SDS011;54895;40.928;14.480;2024-01-06T10:40:17;12.25;;;4.53;;
63688;SDS011;54895;40.928;14.480;2024-01-06T10:42:44;16.15;;;4.10;;
63688;SDS011;54895;40.928;14.480;2024-01-06T10:45:12;12.52;;;4.25;;
63688;SDS011;54895;40.928;14.480;2024-01-06T10:47:40;9.45;;;3.92;;
63688;SDS011;54895;40.928;14.480;2024-01-06T10:50:09;8.38;;;4.13;;
63688;SDS011;54895;40.928;14.480;2024-01-06T10:52:37;10.52;;;4.72;;
63688;SDS011;54895;40.928;14.480;2024-01-06T10:55:04;12.50;;;4.88;;
63688;SDS011;54895;40.928;14.480;2024-01-06T10:57:31;16.40;;;6.40;;
63688;SDS011;54895;40.928;14.480;2024-01-06T10:59:58;13.35;;;7.25;;
63688;SDS011;54895;40.928;14.480;2024-01-06T11:02:25;13.10;;;6.85;;
63688;SDS011;54895;40.928;14.480;2024-01-06T11:04:55;12.38;;;6.28;;
63688;SDS011;54895;40.928;14.480;2024-01-06T11:07:22;15.98;;;6.00;;
63688;SDS011;54895;40.928;14.480;2024-01-06T11:12:22;16.02;;;6.80;;
63688;SDS011;54895;40.928;14.480;2024-01-06T11:14:49;17.23;;;7.78;;
63688;SDS011;54895;40.928;14.480;2024-01-06T11:20:25;17.90;;;8.18;;
63688;SDS011;54895;40.928;14.480;2024-01-06T11:22:55;19.35;;;8.25;;
63688;SDS011;54895;40.928;14.480;2024-01-06T11:25:50;15.88;;;7.53;;
63688;SDS011;54895;40.928;14.480;2024-01-06T11:35:10;16.13;;;8.10;;
63688;SDS011;54895;40.928;14.480;2024-01-06T11:38:49;12.65;;;6.05;;
63688;SDS011;54895;40.928;14.480;2024-01-06T11:49:25;16.65;;;7.20;;
63688;SDS011;54895;40.928;14.480;2024-01-06T11:53:30;14.93;;;7.38;;
63688;SDS011;54895;40.928;14.480;2024-01-06T11:56:37;18.85;;;8.10;;
63688;SDS011;54895;40.928;14.480;2024-01-06T12:06:38;15.50;;;7.15;;
63688;SDS011;54895;40.928;14.480;2024-01-06T12:10:02;15.93;;;6.07;;
63688;SDS011;54895;40.928;14.480;2024-01-06T12:12:57;12.32;;;5.22;;
63688;SDS011;54895;40.928;14.480;2024-01-06T12:15:43;12.43;;;4.78;;
63688;SDS011;54895;40.928;14.480;2024-01-06T12:19:41;12.13;;;5.63;;
63688;SDS011;54895;40.928;14.480;2024-01-06T12:22:12;10.50;;;6.13;;
63688;SDS011;54895;40.928;14.480;2024-01-06T12:24:42;18.23;;;6.28;;
63688;SDS011;54895;40.928;14.480;2024-01-06T12:27:09;13.98;;;6.50;;
63688;SDS011;54895;40.928;14.480;2024-01-06T12:29:40;16.35;;;7.90;;
63688;SDS011;54895;40.928;14.480;2024-01-06T12:32:07;22.67;;;13.05;;
63688;SDS011;54895;40.928;14.480;2024-01-06T12:34:34;27.05;;;13.65;;
63688;SDS011;54895;40.928;14.480;2024-01-06T12:37:01;19.52;;;12.05;;
63688;SDS011;54895;40.928;14.480;2024-01-06T12:39:28;18.80;;;8.88;;
63688;SDS011;54895;40.928;14.480;2024-01-06T12:41:55;25.23;;;14.48;;
63688;SDS011;54895;40.928;14.480;2024-01-06T12:44:22;23.02;;;12.90;;
63688;SDS011;54895;40.928;14.480;2024-01-06T12:46:49;26.17;;;15.18;;
63688;SDS011;54895;40.928;14.480;2024-01-06T12:49:15;24.67;;;14.25;;
63688;SDS011;54895;40.928;14.480;2024-01-06T12:51:41;25.55;;;12.27;;
63688;SDS011;54895;40.928;14.480;2024-01-06T12:54:08;19.00;;;10.38;;
63688;SDS011;54895;40.928;14.480;2024-01-06T12:56:34;19.40;;;10.98;;
63688;SDS011;54895;40.928;14.480;2024-01-06T12:59:01;20.42;;;10.07;;
63688;SDS011;54895;40.928;14.480;2024-01-06T13:01:27;29.45;;;15.50;;
63688;SDS011;54895;40.928;14.480;2024-01-06T13:03:54;27.23;;;14.02;;
63688;SDS011;54895;40.928;14.480;2024-01-06T13:06:20;25.20;;;11.60;;
63688;SDS011;54895;40.928;14.480;2024-01-06T13:08:47;18.40;;;9.63;;
63688;SDS011;54895;40.928;14.480;2024-01-06T13:11:13;18.75;;;8.95;;
63688;SDS011;54895;40.928;14.480;2024-01-06T13:13:39;18.15;;;7.45;;
63688;SDS011;54895;40.928;14.480;2024-01-06T13:16:06;17.45;;;6.60;;
63688;SDS011;54895;40.928;14.480;2024-01-06T13:19:20;14.90;;;5.68;;
63688;SDS011;54895;40.928;14.480;2024-01-06T13:21:47;12.15;;;4.80;;
63688;SDS011;54895;40.928;14.480;2024-01-06T13:24:13;10.85;;;4.63;;
63688;SDS011;54895;40.928;14.480;2024-01-06T13:26:39;12.40;;;5.28;;
63688;SDS011;54895;40.928;14.480;2024-01-06T13:29:06;14.80;;;6.60;;
63688;SDS011;54895;40.928;14.480;2024-01-06T13:31:32;14.80;;;7.00;;
63688;SDS011;54895;40.928;14.480;2024-01-06T13:33:58;11.48;;;4.90;;
63688;SDS011;54895;40.928;14.480;2024-01-06T13:36:24;12.73;;;4.90;;
63688;SDS011;54895;40.928;14.480;2024-01-06T13:38:51;6.75;;;3.58;;
63688;SDS011;54895;40.928;14.480;2024-01-06T13:41:17;9.48;;;3.38;;
63688;SDS011;54895;40.928;14.480;2024-01-06T13:43:43;10.48;;;3.42;;
63688;SDS011;54895;40.928;14.480;2024-01-06T13:46:10;3.50;;;2.10;;
63688;SDS011;54895;40.928;14.480;2024-01-06T13:48:39;7.32;;;2.70;;
63688;SDS011;54895;40.928;14.480;2024-01-06T13:51:07;7.38;;;2.92;;
63688;SDS011;54895;40.928;14.480;2024-01-06T13:53:33;5.68;;;3.10;;
63688;SDS011;54895;40.928;14.480;2024-01-06T13:55:59;5.75;;;3.22;;
63688;SDS011;54895;40.928;14.480;2024-01-06T13:58:26;7.72;;;4.35;;
63688;SDS011;54895;40.928;14.480;2024-01-06T14:00:53;6.65;;;3.15;;
63688;SDS011;54895;40.928;14.480;2024-01-06T14:03:19;6.90;;;3.58;;
63688;SDS011;54895;40.928;14.480;2024-01-06T14:05:48;4.85;;;3.13;;
63688;SDS011;54895;40.928;14.480;2024-01-06T14:08:14;7.28;;;2.97;;
63688;SDS011;54895;40.928;14.480;2024-01-06T14:10:40;7.10;;;2.70;;
63688;SDS011;54895;40.928;14.480;2024-01-06T14:13:06;6.80;;;3.33;;
63688;SDS011;54895;40.928;14.480;2024-01-06T14:15:34;9.07;;;4.65;;
63688;SDS011;54895;40.928;14.480;2024-01-06T14:21:16;10.45;;;5.60;;
63688;SDS011;54895;40.928;14.480;2024-01-06T14:23:45;10.52;;;4.90;;
63688;SDS011;54895;40.928;14.480;2024-01-06T14:26:11;5.75;;;2.90;;
63688;SDS011;54895;40.928;14.480;2024-01-06T14:28:38;9.30;;;4.43;;
63688;SDS011;54895;40.928;14.480;2024-01-06T14:31:04;9.75;;;5.25;;
63688;SDS011;54895;40.928;14.480;2024-01-06T14:33:30;9.90;;;5.68;;
63688;SDS011;54895;40.928;14.480;2024-01-06T14:35:57;6.38;;;3.40;;
63688;SDS011;54895;40.928;14.480;2024-01-06T14:38:23;7.50;;;4.22;;
63688;SDS011;54895;40.928;14.480;2024-01-06T14:40:49;8.80;;;4.30;;
63688;SDS011;54895;40.928;14.480;2024-01-06T14:43:16;8.93;;;5.38;;
63688;SDS011;54895;40.928;14.480;2024-01-06T14:45:42;11.65;;;5.93;;
63688;SDS011;54895;40.928;14.480;2024-01-06T14:48:08;11.80;;;7.20;;
63688;SDS011;54895;40.928;14.480;2024-01-06T14:50:35;15.15;;;9.77;;
63688;SDS011;54895;40.928;14.480;2024-01-06T14:53:02;15.00;;;7.65;;
63688;SDS011;54895;40.928;14.480;2024-01-06T14:55:28;10.50;;;6.65;;
63688;SDS011;54895;40.928;14.480;2024-01-06T14:57:55;12.00;;;8.02;;
63688;SDS011;54895;40.928;14.480;2024-01-06T15:00:21;12.13;;;7.50;;
63688;SDS011;54895;40.928;14.480;2024-01-06T15:02:47;15.07;;;9.95;;
63688;SDS011;54895;40.928;14.480;2024-01-06T15:05:15;18.00;;;10.48;;
63688;SDS011;54895;40.928;14.480;2024-01-06T15:07:42;20.98;;;13.38;;
63688;SDS011;54895;40.928;14.480;2024-01-06T15:10:08;17.73;;;12.13;;
63688;SDS011;54895;40.928;14.480;2024-01-06T15:12:36;20.48;;;14.27;;
63688;SDS011;54895;40.928;14.480;2024-01-06T15:15:02;18.20;;;12.05;;
63688;SDS011;54895;40.928;14.480;2024-01-06T15:20:48;15.77;;;8.70;;
63688;SDS011;54895;40.928;14.480;2024-01-06T15:23:14;13.98;;;7.97;;
63688;SDS011;54895;40.928;14.480;2024-01-06T15:25:41;13.27;;;6.97;;
63688;SDS011;54895;40.928;14.480;2024-01-06T15:28:10;11.70;;;7.53;;
63688;SDS011;54895;40.928;14.480;2024-01-06T15:30:36;14.25;;;8.43;;
63688;SDS011;54895;40.928;14.480;2024-01-06T15:33:03;14.52;;;7.90;;
63688;SDS011;54895;40.928;14.480;2024-01-06T15:35:29;11.48;;;6.82;;
63688;SDS011;54895;40.928;14.480;2024-01-06T15:37:55;17.77;;;8.80;;
63688;SDS011;54895;40.928;14.480;2024-01-06T15:40:22;20.35;;;10.88;;
63688;SDS011;54895;40.928;14.480;2024-01-06T15:42:48;19.00;;;10.90;;